createdAt,value
2023-05-26T00:02:26.364Z,100.00
2023-05-26T00:04:59.591Z,100.00
2023-05-26T00:07:34.114Z,100.00
2023-05-26T00:10:04.995Z,100.00
2023-05-26T00:12:34.755Z,100.00
2023-05-26T00:15:04.433Z,100.00
2023-05-26T00:17:34.076Z,100.00
2023-05-26T00:20:05.612Z,100.00
2023-05-26T00:22:38.810Z,100.00
2023-05-26T00:25:09.685Z,100.00
2023-05-26T00:27:39.326Z,100.00
2023-05-26T00:30:11.772Z,100.00
2023-05-26T00:32:41.778Z,100.00
2023-05-26T00:35:12.579Z,100.00
2023-05-26T00:37:44.788Z,100.00
2023-05-26T00:40:15.905Z,100.00
2023-05-26T00:42:45.816Z,100.00
2023-05-26T00:45:15.697Z,100.00
2023-05-26T00:47:45.568Z,100.00
2023-05-26T00:50:18.523Z,100.00
2023-05-26T00:52:51.201Z,100.00
2023-05-26T00:55:22.663Z,100.00
2023-05-26T00:57:52.765Z,100.00
2023-05-26T01:00:24.030Z,100.00
2023-05-26T01:03:00.578Z,100.00
2023-05-26T01:05:30.401Z,100.00
2023-05-26T01:08:03.857Z,100.00
2023-05-26T01:10:34.141Z,100.00
2023-05-26T01:13:08.872Z,100.00
2023-05-26T01:15:44.804Z,100.00
2023-05-26T01:18:18.370Z,100.00
2023-05-26T01:20:55.263Z,100.00
2023-05-26T01:24:02.922Z,100.00
2023-05-26T01:26:41.308Z,100.00
2023-05-26T01:29:16.365Z,100.00
2023-05-26T01:31:48.341Z,100.00
2023-05-26T01:34:18.022Z,100.00
2023-05-26T01:36:47.639Z,100.00
2023-05-26T01:39:17.736Z,100.00
2023-05-26T01:41:52.611Z,100.00
2023-05-26T01:44:30.584Z,100.00
2023-05-26T01:47:01.601Z,100.00
2023-05-26T01:49:36.771Z,100.00
2023-05-26T01:52:09.453Z,100.00
2023-05-26T01:54:46.783Z,100.00
2023-05-26T01:57:18.527Z,100.00
2023-05-26T01:59:55.761Z,100.00
2023-05-26T02:02:25.533Z,100.00
2023-05-26T02:04:57.247Z,100.00
2023-05-26T02:07:26.856Z,100.00
2023-05-26T02:09:57.733Z,100.00
2023-05-26T02:12:27.408Z,100.00
2023-05-26T02:15:01.821Z,100.00
2023-05-26T02:17:32.776Z,100.00
2023-05-26T02:20:04.622Z,100.00
2023-05-26T02:22:34.857Z,100.00
2023-05-26T02:25:04.547Z,100.00
2023-05-26T02:27:34.194Z,100.00
2023-05-26T02:30:09.098Z,100.00
2023-05-26T02:32:39.230Z,100.00
2023-05-26T02:35:10.752Z,100.00
2023-05-26T02:37:43.414Z,100.00
2023-05-26T02:40:13.936Z,100.00
2023-05-26T02:42:43.600Z,100.00
2023-05-26T02:45:16.080Z,100.00
2023-05-26T02:47:45.775Z,100.00
2023-05-26T02:50:19.722Z,100.00
2023-05-26T02:52:49.315Z,100.00
2023-05-26T02:55:19.774Z,100.00
2023-05-26T02:57:49.465Z,100.00
2023-05-26T03:00:23.830Z,100.00
2023-05-26T03:02:53.525Z,100.00
2023-05-26T03:05:23.239Z,100.00
2023-05-26T03:07:52.883Z,100.00
2023-05-26T03:10:22.671Z,100.00
2023-05-26T03:12:52.306Z,100.00
2023-05-26T03:15:24.520Z,100.00
2023-05-26T03:17:54.283Z,100.00
2023-05-26T03:20:25.074Z,100.00
2023-05-26T03:22:56.729Z,100.00
2023-05-26T03:25:26.646Z,100.00
2023-05-26T03:27:56.746Z,100.00
2023-05-26T03:30:29.574Z,100.00
2023-05-26T03:33:02.081Z,100.00
2023-05-26T03:35:32.779Z,100.00
2023-05-26T03:38:02.623Z,100.00
2023-05-26T03:40:32.213Z,100.00
2023-05-26T03:43:02.946Z,100.00
2023-05-26T03:45:35.291Z,100.00
2023-05-26T03:48:05.761Z,100.00
2023-05-26T03:50:35.466Z,100.00
2023-05-26T03:53:05.276Z,100.00
2023-05-26T03:55:37.784Z,100.00
2023-05-26T03:58:07.986Z,100.00
2023-05-26T04:00:40.282Z,100.00
2023-05-26T04:03:10.031Z,100.00
2023-05-26T04:05:39.834Z,100.00
2023-05-26T04:08:09.607Z,100.00
2023-05-26T04:10:39.717Z,100.00
2023-05-26T04:13:09.384Z,100.00
2023-05-26T04:15:41.679Z,100.00
2023-05-26T04:18:11.621Z,100.00
2023-05-26T04:20:44.775Z,100.00
2023-05-26T04:23:14.579Z,100.00
2023-05-26T04:25:44.833Z,100.00
2023-05-26T04:28:15.414Z,100.00
2023-05-26T04:30:47.724Z,99.60
2023-05-26T04:33:17.672Z,93.08
2023-05-26T04:35:49.692Z,87.74
2023-05-26T04:38:21.742Z,81.30
2023-05-26T04:40:51.581Z,79.13
2023-05-26T04:43:28.931Z,74.98
2023-05-26T04:46:03.911Z,70.29
2023-05-26T04:48:35.538Z,74.71
2023-05-26T04:51:05.159Z,68.88
2023-05-26T04:53:35.733Z,65.00
2023-05-26T04:56:06.907Z,64.35
2023-05-26T04:58:39.517Z,65.65
2023-05-26T05:01:12.794Z,63.32
2023-05-26T05:03:44.529Z,64.19
2023-05-26T05:06:16.112Z,64.22
2023-05-26T05:08:45.913Z,59.62
2023-05-26T05:11:15.954Z,58.91
2023-05-26T05:13:45.583Z,63.44
2023-05-26T05:16:17.993Z,70.14
2023-05-26T05:18:47.720Z,72.94
2023-05-26T05:21:17.554Z,71.64
2023-05-26T05:23:47.850Z,67.58
2023-05-26T05:26:19.380Z,67.78
2023-05-26T05:28:49.016Z,60.97
2023-05-26T05:31:31.226Z,56.60
2023-05-26T05:34:00.824Z,56.27
2023-05-26T05:36:31.748Z,52.69
2023-05-26T05:39:01.785Z,53.72
2023-05-26T05:41:31.484Z,48.86
2023-05-26T05:44:01.897Z,48.82
2023-05-26T05:46:34.806Z,48.64
2023-05-26T05:49:05.644Z,49.33
2023-05-26T05:51:35.248Z,48.71
2023-05-26T05:54:05.883Z,48.21
2023-05-26T05:56:35.656Z,51.45
2023-05-26T05:59:05.436Z,50.51
2023-05-26T06:01:38.028Z,50.48
2023-05-26T06:04:07.837Z,51.13
2023-05-26T06:06:39.453Z,48.86
2023-05-26T06:09:09.204Z,49.04
2023-05-26T06:11:39.725Z,49.53
2023-05-26T06:14:11.342Z,53.10
2023-05-26T06:16:52.792Z,55.24
2023-05-26T06:19:22.512Z,59.71
2023-05-26T06:21:53.177Z,54.80
2023-05-26T06:24:22.756Z,52.94
2023-05-26T06:26:52.417Z,54.22
2023-05-26T06:29:22.119Z,57.03
2023-05-26T06:31:55.838Z,57.16
2023-05-26T06:34:26.738Z,54.58
2023-05-26T06:36:58.778Z,53.46
2023-05-26T06:39:29.191Z,49.18
2023-05-26T06:41:58.781Z,48.01
2023-05-26T06:44:29.757Z,43.47
2023-05-26T06:47:02.771Z,44.39
2023-05-26T06:49:35.112Z,45.89
2023-05-26T06:52:06.745Z,44.67
2023-05-26T06:54:36.379Z,41.89
2023-05-26T06:57:06.673Z,43.83
2023-05-26T06:59:36.280Z,41.69
2023-05-26T07:02:08.592Z,40.91
2023-05-26T07:04:38.327Z,40.93
2023-05-26T07:07:08.149Z,39.74
2023-05-26T07:09:38.774Z,43.72
2023-05-26T07:12:10.377Z,46.21
2023-05-26T07:14:39.997Z,49.30
2023-05-26T07:17:13.141Z,49.99
2023-05-26T07:19:43.718Z,51.62
2023-05-26T07:22:13.322Z,49.99
2023-05-26T07:24:42.955Z,49.77
2023-05-26T07:27:14.793Z,48.02
2023-05-26T07:29:46.130Z,46.21
2023-05-26T07:32:18.828Z,44.96
2023-05-26T07:34:48.558Z,42.83
2023-05-26T07:37:18.753Z,43.46
2023-05-26T07:39:48.437Z,46.27
2023-05-26T07:42:18.113Z,47.58
2023-05-26T07:44:47.810Z,45.42
2023-05-26T07:47:20.085Z,41.76
2023-05-26T07:49:50.856Z,38.33
2023-05-26T07:52:20.551Z,40.94
2023-05-26T07:54:50.145Z,39.75
2023-05-26T07:57:29.497Z,39.39
2023-05-26T08:00:01.273Z,36.53
2023-05-26T08:02:33.976Z,38.54
2023-05-26T08:05:04.287Z,36.64
2023-05-26T08:07:33.938Z,34.70
2023-05-26T08:10:03.591Z,34.51
2023-05-26T08:12:35.734Z,36.21
2023-05-26T08:15:07.752Z,35.13
2023-05-26T08:17:42.018Z,36.30
2023-05-26T08:20:12.778Z,37.50
2023-05-26T08:22:42.747Z,42.26
2023-05-26T08:25:15.757Z,42.07
2023-05-26T08:27:45.526Z,38.90
2023-05-26T08:30:15.761Z,43.01
2023-05-26T08:32:48.811Z,42.93
2023-05-26T08:35:18.643Z,42.23
2023-05-26T08:37:48.218Z,41.77
2023-05-26T08:40:18.653Z,38.91
2023-05-26T08:42:53.470Z,41.43
2023-05-26T08:45:23.783Z,37.56
2023-05-26T08:47:59.160Z,37.40
2023-05-26T08:50:29.740Z,37.75
2023-05-26T08:55:51.811Z,37.39
2023-05-26T08:58:24.039Z,35.79
2023-05-26T09:00:53.870Z,37.35
2023-05-26T09:03:26.335Z,37.25
2023-05-26T09:05:57.567Z,36.78
2023-05-26T09:08:27.953Z,38.04
2023-05-26T09:10:58.774Z,38.50
2023-05-26T09:13:29.859Z,39.19
2023-05-26T09:16:10.009Z,41.10
2023-05-26T09:18:49.574Z,38.10
2023-05-26T09:21:19.940Z,36.99
2023-05-26T09:23:58.204Z,35.39
2023-05-26T09:26:32.740Z,35.38
2023-05-26T09:29:03.085Z,34.16
2023-05-26T09:31:43.834Z,35.06
2023-05-26T09:34:18.604Z,35.85
2023-05-26T09:36:48.329Z,33.54
2023-05-26T09:39:18.058Z,37.40
2023-05-26T09:41:49.365Z,38.96
2023-05-26T09:44:20.950Z,36.46
2023-05-26T09:46:54.004Z,35.72
2023-05-26T09:49:26.541Z,34.44
2023-05-26T09:52:10.412Z,34.45
2023-05-26T09:54:43.437Z,37.74
2023-05-26T09:57:15.898Z,36.61
2023-05-26T09:59:52.098Z,37.77
2023-05-26T10:02:23.723Z,36.98
2023-05-26T10:04:57.798Z,36.68
2023-05-26T10:07:28.449Z,36.19
2023-05-26T10:10:02.809Z,36.50
2023-05-26T10:12:34.600Z,33.53
2023-05-26T10:15:06.766Z,31.88
2023-05-26T10:17:37.758Z,33.33
2023-05-26T10:20:15.257Z,31.80
2023-05-26T10:22:52.910Z,32.47
2023-05-26T10:25:27.939Z,31.94
2023-05-26T10:28:05.781Z,32.34
2023-05-26T10:30:36.710Z,31.69
2023-05-26T10:33:12.780Z,34.05
2023-05-26T10:36:00.820Z,32.13
2023-05-26T10:38:32.890Z,30.17
2023-05-26T10:41:02.566Z,29.01
2023-05-26T10:43:33.774Z,27.86
2023-05-26T10:46:07.690Z,28.21
2023-05-26T10:48:40.796Z,30.66
2023-05-26T10:51:22.427Z,30.50
2023-05-26T10:53:52.450Z,29.93
2023-05-26T10:56:26.792Z,29.32
2023-05-26T10:59:01.780Z,28.56
2023-05-26T11:01:33.149Z,31.77
2023-05-26T11:04:11.568Z,32.74
2023-05-26T11:06:51.854Z,35.35
2023-05-26T11:09:30.811Z,36.38
2023-05-26T11:12:02.237Z,36.33
2023-05-26T11:14:34.440Z,36.25
2023-05-26T11:17:05.917Z,36.73
2023-05-26T11:19:36.991Z,38.08
2023-05-26T11:24:42.762Z,38.29
2023-05-26T11:27:17.334Z,35.63
2023-05-26T11:29:50.672Z,35.41
2023-05-26T11:32:20.397Z,35.18
2023-05-26T11:34:50.071Z,33.16
2023-05-26T11:37:25.172Z,32.57
2023-05-26T11:39:55.778Z,32.87
2023-05-26T11:42:25.444Z,31.13
2023-05-26T11:44:55.213Z,28.94
2023-05-26T11:47:25.703Z,28.26
2023-05-26T11:49:55.404Z,28.36
2023-05-26T11:52:27.598Z,27.95
2023-05-26T11:54:58.572Z,30.45
2023-05-26T11:57:32.431Z,31.47
2023-05-26T12:00:10.501Z,33.23
2023-05-26T12:02:40.905Z,33.42
2023-05-26T12:05:21.171Z,33.08
2023-05-26T12:08:10.840Z,35.10
2023-05-26T12:10:44.777Z,35.73
2023-05-26T12:13:14.502Z,36.61
2023-05-26T12:15:53.702Z,34.47
2023-05-26T12:18:26.110Z,33.95
2023-05-26T12:20:56.168Z,33.33
2023-05-26T12:23:32.512Z,34.52
2023-05-26T12:26:02.148Z,37.58
2023-05-26T12:28:32.052Z,40.10
2023-05-26T12:31:01.696Z,39.65
2023-05-26T12:33:31.664Z,42.13
2023-05-26T12:36:01.663Z,41.97
2023-05-26T12:38:43.595Z,41.88
2023-05-26T12:41:13.528Z,42.86
2023-05-26T12:43:43.829Z,42.73
2023-05-26T12:46:14.831Z,39.01
2023-05-26T12:48:44.880Z,37.30
2023-05-26T12:51:17.554Z,35.93
2023-05-26T12:53:52.438Z,36.75
2023-05-26T12:56:22.344Z,36.94
2023-05-26T12:58:52.014Z,36.01
2023-05-26T13:01:21.999Z,35.85
2023-05-26T13:06:27.823Z,35.12
2023-05-26T13:09:00.137Z,35.25
2023-05-26T13:11:29.790Z,34.30
2023-05-26T13:13:59.537Z,32.36
2023-05-26T13:16:29.201Z,33.15
2023-05-26T13:18:58.876Z,33.62
2023-05-26T13:21:31.771Z,35.26
2023-05-26T13:24:04.776Z,37.18
2023-05-26T13:26:34.736Z,38.52
2023-05-26T13:29:04.672Z,38.67
2023-05-26T13:31:35.797Z,38.60
2023-05-26T13:34:05.454Z,40.00
2023-05-26T13:36:37.124Z,39.86
2023-05-26T13:39:09.605Z,38.73
2023-05-26T13:41:39.762Z,41.15
2023-05-26T13:44:09.360Z,41.94
2023-05-26T13:46:39.760Z,40.00
2023-05-26T13:49:10.248Z,39.31
2023-05-26T13:51:39.893Z,38.27
2023-05-26T13:54:12.074Z,38.71
2023-05-26T13:56:42.777Z,38.48
2023-05-26T13:59:12.437Z,38.16
2023-05-26T14:01:42.770Z,38.02
2023-05-26T14:04:13.153Z,37.18
2023-05-26T14:06:42.924Z,36.47
2023-05-26T14:09:15.178Z,36.74
2023-05-26T14:11:44.853Z,37.92
2023-05-26T14:14:14.505Z,37.64
2023-05-26T14:16:44.262Z,36.97
2023-05-26T14:19:18.911Z,36.37
2023-05-26T14:22:09.181Z,35.91
2023-05-26T14:24:44.893Z,35.51
2023-05-26T14:27:14.902Z,35.55
2023-05-26T14:29:44.533Z,34.41
2023-05-26T14:32:16.162Z,36.50
2023-05-26T14:34:46.292Z,37.64
2023-05-26T14:37:16.769Z,38.14
2023-05-26T14:39:49.068Z,40.45
2023-05-26T14:42:18.755Z,40.16
2023-05-26T14:44:49.640Z,39.06
2023-05-26T14:47:19.977Z,39.49
2023-05-26T14:49:50.787Z,39.58
2023-05-26T14:52:20.415Z,38.19
2023-05-26T14:54:52.661Z,36.27
2023-05-26T14:57:22.929Z,36.27
2023-05-26T14:59:52.640Z,36.38
2023-05-26T15:02:23.416Z,35.74
2023-05-26T15:04:53.160Z,37.09
2023-05-26T15:07:23.092Z,37.44
2023-05-26T15:09:55.382Z,37.20
2023-05-26T15:12:25.301Z,37.24
2023-05-26T15:14:54.930Z,36.67
2023-05-26T15:17:24.824Z,36.92
2023-05-26T15:19:54.457Z,36.80
2023-05-26T15:22:24.110Z,36.20
2023-05-26T15:24:56.418Z,36.47
2023-05-26T15:27:27.909Z,36.19
2023-05-26T15:29:57.546Z,37.05
2023-05-26T15:32:27.912Z,36.60
2023-05-26T15:34:57.642Z,36.10
2023-05-26T15:37:29.207Z,36.87
2023-05-26T15:40:02.983Z,37.28
2023-05-26T15:42:32.971Z,37.22
2023-05-26T15:45:07.770Z,36.58
2023-05-26T15:47:37.814Z,36.96
2023-05-26T15:50:08.775Z,36.85
2023-05-26T15:52:39.767Z,35.55
2023-05-26T15:55:15.203Z,37.12
2023-05-26T15:57:45.145Z,37.95
2023-05-26T16:00:17.790Z,38.13
2023-05-26T16:02:47.517Z,36.53
2023-05-26T16:05:17.127Z,36.92
2023-05-26T16:07:46.883Z,37.10
2023-05-26T16:10:19.359Z,36.90
2023-05-26T16:12:48.970Z,37.66
2023-05-26T16:15:20.996Z,37.51
2023-05-26T16:17:52.501Z,36.51
2023-05-26T16:20:22.248Z,35.24
2023-05-26T16:22:52.102Z,35.68
2023-05-26T16:25:24.629Z,36.82
2023-05-26T16:27:54.520Z,36.56
2023-05-26T16:30:24.249Z,37.14
2023-05-26T16:32:53.931Z,38.36
2023-05-26T16:35:23.805Z,38.78
2023-05-26T16:37:53.566Z,39.48
2023-05-26T16:40:27.964Z,39.32
2023-05-26T16:42:57.610Z,39.11
2023-05-26T16:45:27.807Z,39.51
2023-05-26T16:47:58.589Z,38.77
2023-05-26T16:50:29.203Z,39.17
2023-05-26T16:52:58.881Z,39.41
2023-05-26T16:55:33.642Z,39.22
2023-05-26T16:58:04.782Z,39.10
2023-05-26T17:00:34.454Z,38.90
2023-05-26T17:03:04.172Z,39.40
2023-05-26T17:05:33.900Z,39.27
2023-05-26T17:08:03.790Z,39.01
2023-05-26T17:10:36.824Z,39.02
2023-05-26T17:13:06.433Z,39.39
2023-05-26T17:15:36.077Z,39.80
2023-05-26T17:18:05.927Z,40.09
2023-05-26T17:20:38.817Z,40.49
2023-05-26T17:23:10.037Z,40.50
2023-05-26T17:25:45.987Z,40.67
2023-05-26T17:28:16.815Z,40.82
2023-05-26T17:30:46.562Z,41.13
2023-05-26T17:33:18.663Z,41.62
2023-05-26T17:35:48.323Z,41.81
2023-05-26T17:38:18.312Z,42.21
2023-05-26T17:40:51.987Z,43.05
2023-05-26T17:43:21.728Z,43.22
2023-05-26T17:45:51.437Z,43.09
2023-05-26T17:48:21.059Z,43.37
2023-05-26T17:50:51.765Z,43.20
2023-05-26T17:53:22.140Z,43.68
2023-05-26T17:55:57.778Z,43.78
2023-05-26T17:58:27.421Z,44.08
2023-05-26T18:00:58.277Z,44.05
2023-05-26T18:03:28.476Z,44.15
2023-05-26T18:05:58.227Z,44.10
2023-05-26T18:08:30.524Z,44.31
2023-05-26T18:11:06.418Z,44.08
2023-05-26T18:13:37.775Z,44.77
2023-05-26T18:16:07.847Z,44.57
2023-05-26T18:18:37.584Z,45.19
2023-05-26T18:21:09.397Z,45.36
2023-05-26T18:23:38.996Z,45.54
2023-05-26T18:26:11.356Z,46.07
2023-05-26T18:28:40.999Z,46.62
2023-05-26T18:31:12.316Z,47.21
2023-05-26T18:33:42.784Z,47.60
2023-05-26T18:36:12.446Z,48.47
2023-05-26T18:38:42.774Z,49.29
2023-05-26T18:41:15.747Z,49.95
2023-05-26T18:43:45.429Z,50.67
2023-05-26T18:46:15.154Z,51.46
2023-05-26T18:48:44.856Z,52.20
2023-05-26T18:51:15.880Z,53.09
2023-05-26T18:53:45.532Z,54.14
2023-05-26T18:56:17.746Z,55.23
2023-05-26T18:58:47.585Z,56.26
2023-05-26T19:01:17.810Z,57.39
2023-05-26T19:03:50.896Z,58.09
2023-05-26T19:06:22.976Z,59.00
2023-05-26T19:08:52.757Z,60.03
2023-05-26T19:11:27.792Z,60.94
2023-05-26T19:13:57.404Z,61.52
2023-05-26T19:16:27.888Z,61.76
2023-05-26T19:18:58.187Z,62.52
2023-05-26T19:21:33.748Z,63.48
2023-05-26T19:24:05.283Z,64.22
2023-05-26T19:26:41.766Z,64.88
2023-05-26T19:29:12.427Z,65.69
2023-05-26T19:31:42.176Z,66.42
2023-05-26T19:34:13.146Z,67.17
2023-05-26T19:36:43.478Z,68.13
2023-05-26T19:39:15.373Z,69.07
2023-05-26T19:41:49.763Z,70.00
2023-05-26T19:44:20.609Z,70.38
2023-05-26T19:46:52.804Z,71.57
2023-05-26T19:49:22.581Z,71.63
2023-05-26T19:51:52.291Z,72.87
2023-05-26T19:54:21.936Z,73.48
2023-05-26T19:56:54.993Z,73.96
2023-05-26T19:59:24.770Z,74.72
2023-05-26T20:01:54.505Z,75.07
2023-05-26T20:04:25.949Z,75.94
2023-05-26T20:06:56.839Z,76.55
2023-05-26T20:09:26.533Z,77.19
2023-05-26T20:11:58.728Z,77.91
2023-05-26T20:14:28.787Z,78.49
2023-05-26T20:16:58.837Z,79.02
2023-05-26T20:19:28.736Z,79.29
2023-05-26T20:21:58.437Z,79.94
2023-05-26T20:24:28.346Z,80.77
2023-05-26T20:27:00.543Z,81.83
2023-05-26T20:29:30.457Z,82.50
2023-05-26T20:32:02.476Z,82.79
2023-05-26T20:34:32.786Z,83.07
2023-05-26T20:37:02.430Z,83.60
2023-05-26T20:39:32.745Z,83.71
2023-05-26T20:42:05.262Z,83.75
2023-05-26T20:44:35.742Z,84.13
2023-05-26T20:47:06.797Z,84.69
2023-05-26T20:49:36.418Z,85.05
2023-05-26T20:52:06.389Z,85.58
2023-05-26T20:54:36.123Z,86.39
2023-05-26T20:57:09.870Z,86.72
2023-05-26T20:59:42.754Z,87.04
2023-05-26T21:02:13.017Z,87.42
2023-05-26T21:04:42.814Z,87.50
2023-05-26T21:07:12.773Z,88.44
2023-05-26T21:09:42.425Z,89.33
2023-05-26T21:12:15.842Z,89.21
2023-05-26T21:14:46.683Z,89.38
2023-05-26T21:17:16.661Z,90.00
2023-05-26T21:19:48.157Z,90.02
2023-05-26T21:22:17.905Z,89.23
2023-05-26T21:24:47.777Z,88.02
2023-05-26T21:27:20.056Z,87.52
2023-05-26T21:29:52.798Z,87.93
2023-05-26T21:32:22.527Z,87.54
2023-05-26T21:34:52.742Z,87.96
2023-05-26T21:37:22.530Z,88.89
2023-05-26T21:39:52.359Z,89.32
2023-05-26T21:42:24.772Z,89.72
2023-05-26T21:44:54.737Z,90.40
2023-05-26T21:47:25.129Z,90.96
2023-05-26T21:49:54.752Z,91.22
2023-05-26T21:52:24.980Z,91.71
2023-05-26T21:54:55.777Z,91.99
2023-05-26T21:57:28.032Z,91.88
2023-05-26T21:59:58.751Z,91.90
2023-05-26T22:02:29.790Z,92.33
2023-05-26T22:04:59.512Z,93.19
2023-05-26T22:07:29.119Z,93.42
2023-05-26T22:09:59.751Z,94.25
2023-05-26T22:12:32.149Z,94.97
2023-05-26T22:15:02.745Z,95.76
2023-05-26T22:17:32.457Z,95.76
2023-05-26T22:20:02.796Z,96.09
2023-05-26T22:22:32.521Z,96.11
2023-05-26T22:25:02.184Z,96.68
2023-05-26T22:27:34.403Z,96.75
2023-05-26T22:30:04.265Z,97.34
2023-05-26T22:32:34.077Z,96.50
2023-05-26T22:35:04.813Z,96.64
2023-05-26T22:37:34.409Z,97.62
2023-05-26T22:40:04.588Z,97.31
2023-05-26T22:42:36.839Z,97.51
2023-05-26T22:45:07.774Z,97.79
2023-05-26T22:47:37.382Z,98.04
2023-05-26T22:50:10.719Z,98.46
2023-05-26T22:52:40.686Z,99.04
2023-05-26T22:55:11.376Z,99.06
2023-05-26T22:57:43.938Z,99.54
2023-05-26T23:00:14.990Z,99.34
2023-05-26T23:02:44.897Z,98.59
2023-05-26T23:05:14.582Z,99.26
2023-05-26T23:07:44.489Z,100.00
2023-05-26T23:10:14.323Z,100.00
2023-05-26T23:12:46.739Z,100.00
2023-05-26T23:15:16.946Z,100.00
2023-05-26T23:17:47.891Z,100.00
2023-05-26T23:20:17.896Z,100.00
2023-05-26T23:22:47.767Z,100.00
2023-05-26T23:25:18.379Z,100.00
2023-05-26T23:27:51.756Z,100.00
2023-05-26T23:30:21.818Z,100.00
2023-05-26T23:32:51.537Z,100.00
2023-05-26T23:35:21.168Z,100.00
2023-05-26T23:37:52.753Z,100.00
2023-05-26T23:40:28.698Z,100.00
2023-05-26T23:43:02.762Z,100.00
2023-05-26T23:45:32.375Z,100.00
2023-05-26T23:48:05.835Z,100.00
2023-05-26T23:50:35.495Z,100.00
2023-05-26T23:53:06.226Z,100.00
2023-05-26T23:55:36.260Z,100.00
2023-05-26T23:58:08.653Z,100.00
